sensor_id;sensor_type;location;lat;lon;timestamp;P1;durP1;ratioP1;P2;durP2;ratioP2
23099;SDS011;53791;50.696;4.396;2022-09-21T00:01:22;4.47;;;2.22;;
23099;SDS011;53791;50.696;4.396;2022-09-21T00:03:52;3.60;;;2.40;;
23099;SDS011;53791;50.696;4.396;2022-09-21T00:06:21;1.92;;;1.32;;
23099;SDS011;53791;50.696;4.396;2022-09-21T00:08:50;2.55;;;1.75;;
23099;SDS011;53791;50.696;4.396;2022-09-21T00:11:21;5.65;;;2.52;;
23099;SDS011;53791;50.696;4.396;2022-09-21T00:13:58;2.00;;;1.55;;
23099;SDS011;53791;50.696;4.396;2022-09-21T00:16:24;4.10;;;2.65;;
23099;SDS011;53791;50.696;4.396;2022-09-21T00:18:52;2.87;;;1.87;;
23099;SDS011;53791;50.696;4.396;2022-09-21T00:21:20;3.50;;;1.70;;
23099;SDS011;53791;50.696;4.396;2022-09-21T00:23:47;4.42;;;2.08;;
23099;SDS011;53791;50.696;4.396;2022-09-21T00:26:22;3.17;;;1.98;;
23099;SDS011;53791;50.696;4.396;2022-09-21T00:28:52;2.87;;;2.02;;
23099;SDS011;53791;50.696;4.396;2022-09-21T00:31:22;2.47;;;1.42;;
23099;SDS011;53791;50.696;4.396;2022-09-21T00:33:51;2.67;;;1.65;;
23099;SDS011;53791;50.696;4.396;2022-09-21T00:36:20;1.77;;;1.30;;
23099;SDS011;53791;50.696;4.396;2022-09-21T00:38:50;4.85;;;2.58;;
23099;SDS011;53791;50.696;4.396;2022-09-21T00:41:19;1.72;;;1.20;;
23099;SDS011;53791;50.696;4.396;2022-09-21T00:46:48;5.90;;;2.60;;
23099;SDS011;53791;50.696;4.396;2022-09-21T00:49:17;2.98;;;1.95;;
23099;SDS011;53791;50.696;4.396;2022-09-21T00:51:46;3.98;;;2.83;;
23099;SDS011;53791;50.696;4.396;2022-09-21T00:54:20;2.92;;;1.85;;
23099;SDS011;53791;50.696;4.396;2022-09-21T00:56:45;2.42;;;1.52;;
23099;SDS011;53791;50.696;4.396;2022-09-21T00:59:13;3.33;;;2.37;;
23099;SDS011;53791;50.696;4.396;2022-09-21T01:01:43;3.70;;;2.17;;
23099;SDS011;53791;50.696;4.396;2022-09-21T01:04:11;2.67;;;1.77;;
23099;SDS011;53791;50.696;4.396;2022-09-21T01:06:41;3.30;;;2.10;;
23099;SDS011;53791;50.696;4.396;2022-09-21T01:09:09;2.52;;;1.72;;
23099;SDS011;53791;50.696;4.396;2022-09-21T01:11:42;3.35;;;2.08;;
23099;SDS011;53791;50.696;4.396;2022-09-21T01:17:27;4.67;;;2.10;;
23099;SDS011;53791;50.696;4.396;2022-09-21T01:22:32;2.75;;;1.42;;
23099;SDS011;53791;50.696;4.396;2022-09-21T01:25:09;2.65;;;1.35;;
23099;SDS011;53791;50.696;4.396;2022-09-21T01:27:45;2.40;;;1.62;;
23099;SDS011;53791;50.696;4.396;2022-09-21T01:30:18;2.52;;;1.90;;
23099;SDS011;53791;50.696;4.396;2022-09-21T01:35:31;4.08;;;2.42;;
23099;SDS011;53791;50.696;4.396;2022-09-21T01:38:23;2.45;;;1.67;;
23099;SDS011;53791;50.696;4.396;2022-09-21T01:41:04;1.72;;;1.12;;
23099;SDS011;53791;50.696;4.396;2022-09-21T01:43:39;2.40;;;1.50;;
23099;SDS011;53791;50.696;4.396;2022-09-21T01:46:10;2.80;;;1.85;;
23099;SDS011;53791;50.696;4.396;2022-09-21T01:48:43;4.85;;;2.22;;
23099;SDS011;53791;50.696;4.396;2022-09-21T01:51:13;3.70;;;1.85;;
23099;SDS011;53791;50.696;4.396;2022-09-21T01:53:48;2.22;;;1.40;;
23099;SDS011;53791;50.696;4.396;2022-09-21T01:59:16;3.85;;;2.12;;
23099;SDS011;53791;50.696;4.396;2022-09-21T02:01:48;4.22;;;1.80;;
23099;SDS011;53791;50.696;4.396;2022-09-21T02:04:16;2.80;;;1.47;;
23099;SDS011;53791;50.696;4.396;2022-09-21T02:06:45;2.90;;;1.72;;
23099;SDS011;53791;50.696;4.396;2022-09-21T02:09:16;4.72;;;1.75;;
23099;SDS011;53791;50.696;4.396;2022-09-21T02:11:46;2.55;;;1.82;;
23099;SDS011;53791;50.696;4.396;2022-09-21T02:14:15;2.75;;;1.72;;
23099;SDS011;53791;50.696;4.396;2022-09-21T02:16:49;2.47;;;1.60;;
23099;SDS011;53791;50.696;4.396;2022-09-21T02:24:34;2.77;;;1.67;;
23099;SDS011;53791;50.696;4.396;2022-09-21T02:27:04;3.08;;;1.85;;
23099;SDS011;53791;50.696;4.396;2022-09-21T02:29:54;2.52;;;1.60;;
23099;SDS011;53791;50.696;4.396;2022-09-21T02:32:37;3.02;;;1.77;;
23099;SDS011;53791;50.696;4.396;2022-09-21T02:35:17;2.77;;;1.77;;
23099;SDS011;53791;50.696;4.396;2022-09-21T02:37:46;2.08;;;1.22;;
23099;SDS011;53791;50.696;4.396;2022-09-21T02:40:29;2.75;;;1.70;;
23099;SDS011;53791;50.696;4.396;2022-09-21T02:43:01;4.60;;;2.25;;
23099;SDS011;53791;50.696;4.396;2022-09-21T02:45:31;2.75;;;1.90;;
23099;SDS011;53791;50.696;4.396;2022-09-21T02:48:02;3.00;;;1.80;;
23099;SDS011;53791;50.696;4.396;2022-09-21T02:50:35;2.17;;;1.37;;
23099;SDS011;53791;50.696;4.396;2022-09-21T02:53:11;5.97;;;1.77;;
23099;SDS011;53791;50.696;4.396;2022-09-21T02:55:41;1.82;;;1.32;;
23099;SDS011;53791;50.696;4.396;2022-09-21T02:58:12;1.15;;;0.72;;
23099;SDS011;53791;50.696;4.396;2022-09-21T03:00:41;3.40;;;1.25;;
23099;SDS011;53791;50.696;4.396;2022-09-21T03:03:17;2.35;;;1.27;;
23099;SDS011;53791;50.696;4.396;2022-09-21T03:05:47;1.80;;;1.12;;
23099;SDS011;53791;50.696;4.396;2022-09-21T03:08:14;3.67;;;2.10;;
23099;SDS011;53791;50.696;4.396;2022-09-21T03:10:42;3.15;;;1.67;;
23099;SDS011;53791;50.696;4.396;2022-09-21T03:13:11;2.75;;;1.65;;
23099;SDS011;53791;50.696;4.396;2022-09-21T03:15:39;3.20;;;2.02;;
23099;SDS011;53791;50.696;4.396;2022-09-21T03:18:10;6.20;;;2.37;;
23099;SDS011;53791;50.696;4.396;2022-09-21T03:20:38;3.15;;;1.50;;
23099;SDS011;53791;50.696;4.396;2022-09-21T03:23:09;2.67;;;1.50;;
23099;SDS011;53791;50.696;4.396;2022-09-21T03:25:37;4.33;;;1.98;;
23099;SDS011;53791;50.696;4.396;2022-09-21T03:28:05;2.08;;;1.50;;
23099;SDS011;53791;50.696;4.396;2022-09-21T03:30:33;2.35;;;1.42;;
23099;SDS011;53791;50.696;4.396;2022-09-21T03:33:00;2.22;;;1.40;;
23099;SDS011;53791;50.696;4.396;2022-09-21T03:35:29;1.80;;;1.20;;
23099;SDS011;53791;50.696;4.396;2022-09-21T03:37:59;2.72;;;1.45;;
23099;SDS011;53791;50.696;4.396;2022-09-21T03:40:27;2.37;;;1.40;;
23099;SDS011;53791;50.696;4.396;2022-09-21T03:42:55;1.90;;;1.27;;
23099;SDS011;53791;50.696;4.396;2022-09-21T03:45:23;2.42;;;1.30;;
23099;SDS011;53791;50.696;4.396;2022-09-21T03:47:55;2.72;;;1.80;;
23099;SDS011;53791;50.696;4.396;2022-09-21T03:50:24;1.75;;;1.27;;
23099;SDS011;53791;50.696;4.396;2022-09-21T03:52:55;2.00;;;1.32;;
23099;SDS011;53791;50.696;4.396;2022-09-21T03:55:23;2.50;;;1.50;;
23099;SDS011;53791;50.696;4.396;2022-09-21T03:57:51;3.12;;;2.02;;
23099;SDS011;53791;50.696;4.396;2022-09-21T04:00:19;1.85;;;1.25;;
23099;SDS011;53791;50.696;4.396;2022-09-21T04:02:47;2.60;;;1.50;;
23099;SDS011;53791;50.696;4.396;2022-09-21T04:05:16;2.67;;;1.40;;
23099;SDS011;53791;50.696;4.396;2022-09-21T04:07:43;2.47;;;1.45;;
23099;SDS011;53791;50.696;4.396;2022-09-21T04:10:12;2.02;;;1.20;;
23099;SDS011;53791;50.696;4.396;2022-09-21T04:12:44;2.10;;;1.50;;
23099;SDS011;53791;50.696;4.396;2022-09-21T04:15:13;1.87;;;1.27;;
23099;SDS011;53791;50.696;4.396;2022-09-21T04:17:46;2.85;;;1.45;;
23099;SDS011;53791;50.696;4.396;2022-09-21T04:20:17;2.42;;;2.10;;
23099;SDS011;53791;50.696;4.396;2022-09-21T04:22:43;2.47;;;1.70;;
23099;SDS011;53791;50.696;4.396;2022-09-21T04:25:12;2.70;;;1.57;;
23099;SDS011;53791;50.696;4.396;2022-09-21T04:27:42;2.17;;;1.22;;
23099;SDS011;53791;50.696;4.396;2022-09-21T04:30:10;2.85;;;1.77;;
23099;SDS011;53791;50.696;4.396;2022-09-21T04:32:40;2.70;;;1.82;;
23099;SDS011;53791;50.696;4.396;2022-09-21T04:35:11;2.58;;;1.65;;
23099;SDS011;53791;50.696;4.396;2022-09-21T04:37:39;9.93;;;2.45;;
23099;SDS011;53791;50.696;4.396;2022-09-21T04:40:07;2.08;;;1.40;;
23099;SDS011;53791;50.696;4.396;2022-09-21T04:42:34;1.60;;;1.00;;
23099;SDS011;53791;50.696;4.396;2022-09-21T04:45:02;2.72;;;1.92;;
23099;SDS011;53791;50.696;4.396;2022-09-21T04:47:30;12.60;;;3.62;;
23099;SDS011;53791;50.696;4.396;2022-09-21T04:49:58;1.77;;;1.10;;
23099;SDS011;53791;50.696;4.396;2022-09-21T04:52:27;2.45;;;1.55;;
23099;SDS011;53791;50.696;4.396;2022-09-21T04:54:55;3.10;;;1.80;;
23099;SDS011;53791;50.696;4.396;2022-09-21T04:57:22;1.57;;;0.98;;
23099;SDS011;53791;50.696;4.396;2022-09-21T04:59:50;1.90;;;1.17;;
23099;SDS011;53791;50.696;4.396;2022-09-21T05:02:17;1.75;;;1.17;;
23099;SDS011;53791;50.696;4.396;2022-09-21T05:04:45;2.08;;;1.32;;
23099;SDS011;53791;50.696;4.396;2022-09-21T05:07:12;4.35;;;2.25;;
23099;SDS011;53791;50.696;4.396;2022-09-21T05:09:40;1.30;;;0.82;;
23099;SDS011;53791;50.696;4.396;2022-09-21T05:12:25;20.45;;;2.87;;
23099;SDS011;53791;50.696;4.396;2022-09-21T05:14:53;1.52;;;1.07;;
23099;SDS011;53791;50.696;4.396;2022-09-21T05:17:23;3.05;;;1.52;;
23099;SDS011;53791;50.696;4.396;2022-09-21T05:19:51;1.85;;;1.22;;
23099;SDS011;53791;50.696;4.396;2022-09-21T05:22:19;2.60;;;1.37;;
23099;SDS011;53791;50.696;4.396;2022-09-21T05:24:47;2.70;;;1.72;;
23099;SDS011;53791;50.696;4.396;2022-09-21T05:27:14;1.92;;;1.10;;
23099;SDS011;53791;50.696;4.396;2022-09-21T05:29:43;1.42;;;0.95;;
23099;SDS011;53791;50.696;4.396;2022-09-21T05:32:13;4.72;;;1.37;;
23099;SDS011;53791;50.696;4.396;2022-09-21T05:34:48;2.00;;;1.32;;
23099;SDS011;53791;50.696;4.396;2022-09-21T05:39:54;2.65;;;1.60;;
23099;SDS011;53791;50.696;4.396;2022-09-21T05:42:22;2.95;;;1.60;;
23099;SDS011;53791;50.696;4.396;2022-09-21T05:44:50;2.52;;;1.20;;
23099;SDS011;53791;50.696;4.396;2022-09-21T05:50:00;2.30;;;1.50;;
23099;SDS011;53791;50.696;4.396;2022-09-21T05:52:50;2.22;;;1.35;;
23099;SDS011;53791;50.696;4.396;2022-09-21T05:55:25;3.58;;;2.17;;
23099;SDS011;53791;50.696;4.396;2022-09-21T05:58:08;2.30;;;1.47;;
23099;SDS011;53791;50.696;4.396;2022-09-21T06:00:54;3.87;;;2.10;;
23099;SDS011;53791;50.696;4.396;2022-09-21T06:03:34;3.33;;;2.22;;
23099;SDS011;53791;50.696;4.396;2022-09-21T06:06:03;2.70;;;1.32;;
23099;SDS011;53791;50.696;4.396;2022-09-21T06:08:30;2.15;;;1.32;;
23099;SDS011;53791;50.696;4.396;2022-09-21T06:10:58;1.87;;;1.40;;
23099;SDS011;53791;50.696;4.396;2022-09-21T06:13:25;1.60;;;1.02;;
23099;SDS011;53791;50.696;4.396;2022-09-21T06:15:53;1.90;;;1.25;;
23099;SDS011;53791;50.696;4.396;2022-09-21T06:18:20;2.37;;;1.45;;
23099;SDS011;53791;50.696;4.396;2022-09-21T06:20:48;2.40;;;1.22;;
23099;SDS011;53791;50.696;4.396;2022-09-21T06:23:15;2.05;;;1.60;;
23099;SDS011;53791;50.696;4.396;2022-09-21T06:25:43;5.83;;;2.45;;
23099;SDS011;53791;50.696;4.396;2022-09-21T06:28:12;6.33;;;3.10;;
23099;SDS011;53791;50.696;4.396;2022-09-21T06:30:40;8.78;;;4.67;;
23099;SDS011;53791;50.696;4.396;2022-09-21T06:33:09;4.55;;;3.98;;
23099;SDS011;53791;50.696;4.396;2022-09-21T06:35:39;5.50;;;3.20;;
23099;SDS011;53791;50.696;4.396;2022-09-21T06:38:06;7.67;;;5.60;;
23099;SDS011;53791;50.696;4.396;2022-09-21T06:40:34;7.22;;;3.35;;
23099;SDS011;53791;50.696;4.396;2022-09-21T06:43:03;2.80;;;2.00;;
23099;SDS011;53791;50.696;4.396;2022-09-21T06:45:31;3.45;;;2.40;;
23099;SDS011;53791;50.696;4.396;2022-09-21T06:47:58;4.42;;;2.95;;
23099;SDS011;53791;50.696;4.396;2022-09-21T06:50:26;5.42;;;3.37;;
23099;SDS011;53791;50.696;4.396;2022-09-21T06:52:59;4.35;;;3.25;;
23099;SDS011;53791;50.696;4.396;2022-09-21T06:55:28;7.00;;;3.37;;
23099;SDS011;53791;50.696;4.396;2022-09-21T06:58:00;2.70;;;1.82;;
23099;SDS011;53791;50.696;4.396;2022-09-21T07:00:33;6.08;;;3.00;;
23099;SDS011;53791;50.696;4.396;2022-09-21T07:02:57;4.03;;;2.67;;
23099;SDS011;53791;50.696;4.396;2022-09-21T07:05:26;4.03;;;2.12;;
23099;SDS011;53791;50.696;4.396;2022-09-21T07:07:57;4.53;;;3.05;;
23099;SDS011;53791;50.696;4.396;2022-09-21T07:10:25;5.25;;;3.30;;
23099;SDS011;53791;50.696;4.396;2022-09-21T07:12:52;4.20;;;3.12;;
23099;SDS011;53791;50.696;4.396;2022-09-21T07:15:20;7.95;;;4.17;;
23099;SDS011;53791;50.696;4.396;2022-09-21T07:17:48;4.85;;;3.00;;
23099;SDS011;53791;50.696;4.396;2022-09-21T07:20:16;4.78;;;2.42;;
23099;SDS011;53791;50.696;4.396;2022-09-21T07:22:43;5.62;;;2.83;;
23099;SDS011;53791;50.696;4.396;2022-09-21T07:25:11;5.10;;;3.33;;
23099;SDS011;53791;50.696;4.396;2022-09-21T07:27:39;7.60;;;4.60;;
23099;SDS011;53791;50.696;4.396;2022-09-21T07:30:07;4.03;;;3.00;;
23099;SDS011;53791;50.696;4.396;2022-09-21T07:32:35;6.50;;;2.35;;
23099;SDS011;53791;50.696;4.396;2022-09-21T07:35:02;3.92;;;2.62;;
23099;SDS011;53791;50.696;4.396;2022-09-21T07:37:30;5.87;;;3.40;;
23099;SDS011;53791;50.696;4.396;2022-09-21T07:39:58;4.75;;;2.83;;
23099;SDS011;53791;50.696;4.396;2022-09-21T07:42:27;6.42;;;4.00;;
23099;SDS011;53791;50.696;4.396;2022-09-21T07:44:57;4.70;;;3.08;;
23099;SDS011;53791;50.696;4.396;2022-09-21T07:47:25;5.67;;;3.40;;
23099;SDS011;53791;50.696;4.396;2022-09-21T07:49:52;4.70;;;3.25;;
23099;SDS011;53791;50.696;4.396;2022-09-21T07:52:20;16.67;;;3.67;;
23099;SDS011;53791;50.696;4.396;2022-09-21T07:54:48;5.00;;;3.08;;
23099;SDS011;53791;50.696;4.396;2022-09-21T07:57:15;11.30;;;3.83;;
23099;SDS011;53791;50.696;4.396;2022-09-21T08:00:01;5.80;;;3.40;;
23099;SDS011;53791;50.696;4.396;2022-09-21T08:02:29;4.92;;;3.02;;
23099;SDS011;53791;50.696;4.396;2022-09-21T08:04:56;4.58;;;3.35;;
23099;SDS011;53791;50.696;4.396;2022-09-21T08:07:24;3.67;;;2.40;;
23099;SDS011;53791;50.696;4.396;2022-09-21T08:09:53;5.80;;;2.58;;
23099;SDS011;53791;50.696;4.396;2022-09-21T08:12:20;3.35;;;2.22;;
23099;SDS011;53791;50.696;4.396;2022-09-21T08:14:48;4.87;;;2.67;;
23099;SDS011;53791;50.696;4.396;2022-09-21T08:17:16;2.80;;;1.95;;
23099;SDS011;53791;50.696;4.396;2022-09-21T08:19:44;3.77;;;2.33;;
23099;SDS011;53791;50.696;4.396;2022-09-21T08:22:11;3.42;;;2.45;;
23099;SDS011;53791;50.696;4.396;2022-09-21T08:24:39;3.40;;;2.75;;
23099;SDS011;53791;50.696;4.396;2022-09-21T08:27:08;3.60;;;2.20;;
23099;SDS011;53791;50.696;4.396;2022-09-21T08:29:36;4.75;;;2.55;;
23099;SDS011;53791;50.696;4.396;2022-09-21T08:32:04;5.37;;;1.90;;
23099;SDS011;53791;50.696;4.396;2022-09-21T08:34:32;7.53;;;2.77;;
23099;SDS011;53791;50.696;4.396;2022-09-21T08:36:59;3.05;;;1.50;;
23099;SDS011;53791;50.696;4.396;2022-09-21T08:39:27;11.88;;;1.80;;
23099;SDS011;53791;50.696;4.396;2022-09-21T08:44:40;3.95;;;1.72;;
23099;SDS011;53791;50.696;4.396;2022-09-21T08:47:20;2.45;;;1.55;;
23099;SDS011;53791;50.696;4.396;2022-09-21T08:50:01;2.72;;;1.42;;
23099;SDS011;53791;50.696;4.396;2022-09-21T08:52:30;4.03;;;1.40;;
23099;SDS011;53791;50.696;4.396;2022-09-21T08:55:04;3.52;;;1.95;;
23099;SDS011;53791;50.696;4.396;2022-09-21T08:57:31;3.27;;;1.72;;
23099;SDS011;53791;50.696;4.396;2022-09-21T09:00:00;2.02;;;1.30;;
23099;SDS011;53791;50.696;4.396;2022-09-21T09:02:39;3.25;;;1.60;;
23099;SDS011;53791;50.696;4.396;2022-09-21T09:10:55;2.92;;;1.92;;
23099;SDS011;53791;50.696;4.396;2022-09-21T09:13:33;1.75;;;1.15;;
23099;SDS011;53791;50.696;4.396;2022-09-21T09:16:17;3.52;;;1.50;;
23099;SDS011;53791;50.696;4.396;2022-09-21T09:18:56;2.47;;;1.50;;
23099;SDS011;53791;50.696;4.396;2022-09-21T09:21:31;2.35;;;1.35;;
23099;SDS011;53791;50.696;4.396;2022-09-21T09:24:28;2.58;;;0.98;;
23099;SDS011;53791;50.696;4.396;2022-09-21T09:27:05;2.33;;;1.22;;
23099;SDS011;53791;50.696;4.396;2022-09-21T09:32:18;2.95;;;1.60;;
23099;SDS011;53791;50.696;4.396;2022-09-21T09:34:53;3.20;;;1.52;;
23099;SDS011;53791;50.696;4.396;2022-09-21T09:37:26;1.82;;;1.15;;
23099;SDS011;53791;50.696;4.396;2022-09-21T09:39:55;14.15;;;1.52;;
23099;SDS011;53791;50.696;4.396;2022-09-21T09:42:34;2.60;;;1.32;;
23099;SDS011;53791;50.696;4.396;2022-09-21T09:45:13;1.92;;;1.12;;
23099;SDS011;53791;50.696;4.396;2022-09-21T09:47:49;2.22;;;1.00;;
23099;SDS011;53791;50.696;4.396;2022-09-21T09:50:36;1.55;;;0.98;;
23099;SDS011;53791;50.696;4.396;2022-09-21T09:53:11;1.50;;;0.80;;
23099;SDS011;53791;50.696;4.396;2022-09-21T09:55:40;1.55;;;0.75;;
23099;SDS011;53791;50.696;4.396;2022-09-21T10:00:51;1.27;;;0.82;;
23099;SDS011;53791;50.696;4.396;2022-09-21T10:03:26;3.47;;;1.40;;
23099;SDS011;53791;50.696;4.396;2022-09-21T10:05:50;1.62;;;0.93;;
23099;SDS011;53791;50.696;4.396;2022-09-21T10:10:57;1.02;;;0.60;;
23099;SDS011;53791;50.696;4.396;2022-09-21T10:13:34;1.47;;;0.62;;
23099;SDS011;53791;50.696;4.396;2022-09-21T10:16:11;1.77;;;0.80;;
23099;SDS011;53791;50.696;4.396;2022-09-21T10:18:50;1.60;;;0.70;;
23099;SDS011;53791;50.696;4.396;2022-09-21T10:21:24;1.32;;;0.75;;
23099;SDS011;53791;50.696;4.396;2022-09-21T10:24:05;0.50;;;0.40;;
23099;SDS011;53791;50.696;4.396;2022-09-21T10:31:57;0.53;;;0.33;;
23099;SDS011;53791;50.696;4.396;2022-09-21T10:34:30;1.17;;;0.70;;
23099;SDS011;53791;50.696;4.396;2022-09-21T10:36:59;1.17;;;0.60;;
23099;SDS011;53791;50.696;4.396;2022-09-21T10:39:31;1.00;;;0.60;;
23099;SDS011;53791;50.696;4.396;2022-09-21T10:42:03;0.90;;;0.53;;
23099;SDS011;53791;50.696;4.396;2022-09-21T10:44:46;2.90;;;0.80;;
23099;SDS011;53791;50.696;4.396;2022-09-21T10:47:19;1.30;;;0.70;;
23099;SDS011;53791;50.696;4.396;2022-09-21T10:49:49;4.58;;;1.00;;
23099;SDS011;53791;50.696;4.396;2022-09-21T10:52:20;1.82;;;0.90;;
23099;SDS011;53791;50.696;4.396;2022-09-21T10:54:50;1.57;;;0.70;;
23099;SDS011;53791;50.696;4.396;2022-09-21T10:57:20;1.10;;;0.80;;
23099;SDS011;53791;50.696;4.396;2022-09-21T10:59:50;3.42;;;1.07;;
23099;SDS011;53791;50.696;4.396;2022-09-21T11:02:24;1.10;;;0.68;;
23099;SDS011;53791;50.696;4.396;2022-09-21T11:07:56;0.60;;;0.50;;
23099;SDS011;53791;50.696;4.396;2022-09-21T11:16:23;1.42;;;0.65;;
23099;SDS011;53791;50.696;4.396;2022-09-21T11:19:19;1.12;;;0.60;;
23099;SDS011;53791;50.696;4.396;2022-09-21T11:24:58;2.02;;;0.80;;
23099;SDS011;53791;50.696;4.396;2022-09-21T11:27:27;1.30;;;0.70;;
23099;SDS011;53791;50.696;4.396;2022-09-21T11:30:12;2.62;;;0.95;;
23099;SDS011;53791;50.696;4.396;2022-09-21T11:35:52;1.10;;;0.75;;
23099;SDS011;53791;50.696;4.396;2022-09-21T11:38:31;0.95;;;0.65;;
23099;SDS011;53791;50.696;4.396;2022-09-21T11:40:58;2.77;;;0.88;;
23099;SDS011;53791;50.696;4.396;2022-09-21T11:43:42;1.77;;;0.70;;
23099;SDS011;53791;50.696;4.396;2022-09-21T11:46:11;1.45;;;0.85;;
23099;SDS011;53791;50.696;4.396;2022-09-21T11:51:40;1.00;;;0.45;;
23099;SDS011;53791;50.696;4.396;2022-09-21T11:54:28;0.70;;;0.40;;
23099;SDS011;53791;50.696;4.396;2022-09-21T11:56:53;1.02;;;0.65;;
23099;SDS011;53791;50.696;4.396;2022-09-21T11:59:35;1.22;;;0.62;;
23099;SDS011;53791;50.696;4.396;2022-09-21T12:02:29;1.32;;;0.85;;
23099;SDS011;53791;50.696;4.396;2022-09-21T12:05:10;6.20;;;1.22;;
23099;SDS011;53791;50.696;4.396;2022-09-21T12:11:01;1.45;;;0.72;;
23099;SDS011;53791;50.696;4.396;2022-09-21T12:13:48;1.20;;;0.70;;
23099;SDS011;53791;50.696;4.396;2022-09-21T12:21:52;0.82;;;0.50;;
23099;SDS011;53791;50.696;4.396;2022-09-21T12:24:18;0.75;;;0.42;;
23099;SDS011;53791;50.696;4.396;2022-09-21T12:26:56;1.00;;;0.60;;
23099;SDS011;53791;50.696;4.396;2022-09-21T12:29:27;1.42;;;0.70;;
23099;SDS011;53791;50.696;4.396;2022-09-21T12:32:13;0.88;;;0.50;;
23099;SDS011;53791;50.696;4.396;2022-09-21T12:34:54;3.17;;;0.65;;
23099;SDS011;53791;50.696;4.396;2022-09-21T12:37:28;1.17;;;0.70;;
23099;SDS011;53791;50.696;4.396;2022-09-21T12:40:06;0.80;;;0.45;;
23099;SDS011;53791;50.696;4.396;2022-09-21T12:42:43;1.10;;;0.70;;
23099;SDS011;53791;50.696;4.396;2022-09-21T12:45:16;0.98;;;0.62;;
23099;SDS011;53791;50.696;4.396;2022-09-21T12:48:10;1.05;;;0.60;;
23099;SDS011;53791;50.696;4.396;2022-09-21T12:53:17;1.05;;;0.70;;
23099;SDS011;53791;50.696;4.396;2022-09-21T13:01:32;1.00;;;0.65;;
23099;SDS011;53791;50.696;4.396;2022-09-21T13:09:50;2.87;;;0.93;;
23099;SDS011;53791;50.696;4.396;2022-09-21T13:12:20;1.00;;;0.60;;
23099;SDS011;53791;50.696;4.396;2022-09-21T13:14:51;1.25;;;0.68;;
23099;SDS011;53791;50.696;4.396;2022-09-21T13:17:20;1.15;;;0.60;;
23099;SDS011;53791;50.696;4.396;2022-09-21T13:19:57;1.12;;;0.70;;
23099;SDS011;53791;50.696;4.396;2022-09-21T13:22:28;1.12;;;0.70;;
23099;SDS011;53791;50.696;4.396;2022-09-21T13:24:58;1.20;;;0.70;;
23099;SDS011;53791;50.696;4.396;2022-09-21T13:30:38;0.72;;;0.45;;
23099;SDS011;53791;50.696;4.396;2022-09-21T13:36:00;0.85;;;0.45;;
23099;SDS011;53791;50.696;4.396;2022-09-21T13:38:27;1.47;;;0.78;;
23099;SDS011;53791;50.696;4.396;2022-09-21T13:41:02;0.98;;;0.60;;
23099;SDS011;53791;50.696;4.396;2022-09-21T13:43:46;0.72;;;0.40;;
23099;SDS011;53791;50.696;4.396;2022-09-21T13:52:00;1.20;;;0.62;;
23099;SDS011;53791;50.696;4.396;2022-09-21T13:54:45;0.80;;;0.40;;
23099;SDS011;53791;50.696;4.396;2022-09-21T14:02:52;0.82;;;0.45;;
23099;SDS011;53791;50.696;4.396;2022-09-21T14:05:24;0.60;;;0.40;;
23099;SDS011;53791;50.696;4.396;2022-09-21T14:07:46;0.50;;;0.30;;
23099;SDS011;53791;50.696;4.396;2022-09-21T14:10:34;0.95;;;0.57;;
23099;SDS011;53791;50.696;4.396;2022-09-21T14:13:05;1.37;;;0.88;;
23099;SDS011;53791;50.696;4.396;2022-09-21T14:15:35;0.90;;;0.50;;
23099;SDS011;53791;50.696;4.396;2022-09-21T14:23:35;1.27;;;0.60;;
23099;SDS011;53791;50.696;4.396;2022-09-21T14:29:16;5.08;;;1.32;;
23099;SDS011;53791;50.696;4.396;2022-09-21T14:31:48;8.08;;;0.62;;
23099;SDS011;53791;50.696;4.396;2022-09-21T14:34:20;1.52;;;0.65;;
23099;SDS011;53791;50.696;4.396;2022-09-21T14:36:50;1.75;;;0.85;;
23099;SDS011;53791;50.696;4.396;2022-09-21T14:39:21;1.17;;;0.60;;
23099;SDS011;53791;50.696;4.396;2022-09-21T14:41:52;1.77;;;0.78;;
23099;SDS011;53791;50.696;4.396;2022-09-21T14:44:23;0.85;;;0.50;;
23099;SDS011;53791;50.696;4.396;2022-09-21T14:55:14;1.25;;;0.70;;
23099;SDS011;53791;50.696;4.396;2022-09-21T15:00:40;2.58;;;0.98;;
23099;SDS011;53791;50.696;4.396;2022-09-21T15:06:17;1.27;;;0.70;;
23099;SDS011;53791;50.696;4.396;2022-09-21T15:12:26;0.62;;;0.40;;
23099;SDS011;53791;50.696;4.396;2022-09-21T15:14:59;0.68;;;0.45;;
23099;SDS011;53791;50.696;4.396;2022-09-21T15:17:29;0.90;;;0.57;;
23099;SDS011;53791;50.696;4.396;2022-09-21T15:19:58;1.10;;;0.60;;
23099;SDS011;53791;50.696;4.396;2022-09-21T15:22:26;0.80;;;0.50;;
23099;SDS011;53791;50.696;4.396;2022-09-21T15:24:55;0.95;;;0.50;;
23099;SDS011;53791;50.696;4.396;2022-09-21T15:27:29;1.30;;;0.70;;
23099;SDS011;53791;50.696;4.396;2022-09-21T15:29:56;0.72;;;0.50;;
23099;SDS011;53791;50.696;4.396;2022-09-21T15:32:28;1.47;;;0.75;;
23099;SDS011;53791;50.696;4.396;2022-09-21T15:35:00;0.78;;;0.50;;
23099;SDS011;53791;50.696;4.396;2022-09-21T15:37:34;0.93;;;0.50;;
23099;SDS011;53791;50.696;4.396;2022-09-21T15:40:05;0.93;;;0.45;;
23099;SDS011;53791;50.696;4.396;2022-09-21T15:42:37;0.53;;;0.40;;
23099;SDS011;53791;50.696;4.396;2022-09-21T15:45:16;0.80;;;0.50;;
23099;SDS011;53791;50.696;4.396;2022-09-21T15:47:41;0.50;;;0.40;;
23099;SDS011;53791;50.696;4.396;2022-09-21T15:50:13;0.90;;;0.50;;
23099;SDS011;53791;50.696;4.396;2022-09-21T15:52:48;2.65;;;1.15;;
23099;SDS011;53791;50.696;4.396;2022-09-21T15:55:16;1.40;;;0.80;;
23099;SDS011;53791;50.696;4.396;2022-09-21T15:57:51;1.15;;;0.57;;
23099;SDS011;53791;50.696;4.396;2022-09-21T16:00:17;0.85;;;0.60;;
23099;SDS011;53791;50.696;4.396;2022-09-21T16:02:57;4.33;;;1.00;;
23099;SDS011;53791;50.696;4.396;2022-09-21T16:05:40;1.37;;;0.85;;
23099;SDS011;53791;50.696;4.396;2022-09-21T16:08:04;1.15;;;0.70;;
23099;SDS011;53791;50.696;4.396;2022-09-21T16:10:38;1.60;;;0.70;;
23099;SDS011;53791;50.696;4.396;2022-09-21T16:15:42;0.82;;;0.50;;
23099;SDS011;53791;50.696;4.396;2022-09-21T16:18:27;1.10;;;0.60;;
23099;SDS011;53791;50.696;4.396;2022-09-21T16:20:49;1.80;;;0.90;;
23099;SDS011;53791;50.696;4.396;2022-09-21T16:23:18;3.45;;;0.80;;
23099;SDS011;53791;50.696;4.396;2022-09-21T16:25:59;1.30;;;0.80;;
23099;SDS011;53791;50.696;4.396;2022-09-21T16:28:28;1.17;;;0.70;;
23099;SDS011;53791;50.696;4.396;2022-09-21T16:33:58;2.33;;;1.12;;
23099;SDS011;53791;50.696;4.396;2022-09-21T16:36:35;3.05;;;1.30;;
23099;SDS011;53791;50.696;4.396;2022-09-21T16:38:57;2.12;;;1.20;;
23099;SDS011;53791;50.696;4.396;2022-09-21T16:41:30;1.35;;;0.80;;
23099;SDS011;53791;50.696;4.396;2022-09-21T16:43:57;2.02;;;1.05;;
23099;SDS011;53791;50.696;4.396;2022-09-21T16:46:25;0.93;;;0.62;;
23099;SDS011;53791;50.696;4.396;2022-09-21T16:48:53;1.98;;;0.70;;
23099;SDS011;53791;50.696;4.396;2022-09-21T16:51:20;1.00;;;0.60;;
23099;SDS011;53791;50.696;4.396;2022-09-21T16:53:50;1.00;;;0.50;;
23099;SDS011;53791;50.696;4.396;2022-09-21T16:56:19;1.12;;;0.70;;
23099;SDS011;53791;50.696;4.396;2022-09-21T16:58:51;1.60;;;0.85;;
23099;SDS011;53791;50.696;4.396;2022-09-21T17:01:19;0.98;;;0.60;;
23099;SDS011;53791;50.696;4.396;2022-09-21T17:03:47;1.47;;;0.68;;
23099;SDS011;53791;50.696;4.396;2022-09-21T17:06:15;5.55;;;0.70;;
23099;SDS011;53791;50.696;4.396;2022-09-21T17:08:45;1.17;;;0.78;;
23099;SDS011;53791;50.696;4.396;2022-09-21T17:11:16;1.40;;;0.80;;
23099;SDS011;53791;50.696;4.396;2022-09-21T17:13:47;1.07;;;0.75;;
23099;SDS011;53791;50.696;4.396;2022-09-21T17:16:17;5.17;;;0.65;;
23099;SDS011;53791;50.696;4.396;2022-09-21T17:18:45;1.35;;;0.80;;
23099;SDS011;53791;50.696;4.396;2022-09-21T17:21:14;1.12;;;0.72;;
23099;SDS011;53791;50.696;4.396;2022-09-21T17:23:42;0.90;;;0.57;;
23099;SDS011;53791;50.696;4.396;2022-09-21T17:26:14;2.12;;;0.90;;
23099;SDS011;53791;50.696;4.396;2022-09-21T17:28:44;0.95;;;0.53;;
23099;SDS011;53791;50.696;4.396;2022-09-21T17:31:12;1.82;;;0.82;;